createdAt,value
2023-09-18T00:01:01.369Z,74.09
2023-09-18T00:03:28.079Z,73.83
2023-09-18T00:05:54.714Z,74.24
2023-09-18T00:08:21.516Z,74.16
2023-09-18T00:10:50.234Z,74.17
2023-09-18T00:13:16.815Z,74.04
2023-09-18T00:15:45.084Z,73.93
2023-09-18T00:18:12.117Z,74.73
2023-09-18T00:20:38.713Z,74.76
2023-09-18T00:23:05.409Z,74.65
2023-09-18T00:25:31.964Z,74.23
2023-09-18T00:27:58.700Z,74.48
2023-09-18T00:30:25.283Z,74.50
2023-09-18T00:32:53.372Z,74.98
2023-09-18T00:35:20.091Z,74.42
2023-09-18T00:37:46.776Z,74.86
2023-09-18T00:40:13.792Z,74.63
2023-09-18T00:42:40.340Z,75.10
2023-09-18T00:45:07.918Z,74.96
2023-09-18T00:47:34.956Z,75.02
2023-09-18T00:50:04.851Z,74.90
2023-09-18T00:52:32.826Z,74.82
2023-09-18T00:54:59.412Z,74.78
2023-09-18T00:57:26.025Z,74.59
2023-09-18T00:59:52.620Z,74.86
2023-09-18T01:02:19.319Z,74.73
2023-09-18T01:04:46.436Z,74.71
2023-09-18T01:07:14.397Z,74.74
2023-09-18T01:09:41.565Z,75.06
2023-09-18T01:12:18.439Z,74.94
2023-09-18T01:14:55.795Z,74.60
2023-09-18T01:17:23.402Z,75.20
2023-09-18T01:19:50.003Z,74.97
2023-09-18T01:22:19.659Z,75.32
2023-09-18T01:24:48.514Z,74.87
2023-09-18T01:27:16.639Z,75.41
2023-09-18T01:29:43.365Z,75.58
2023-09-18T01:32:10.195Z,75.42
2023-09-18T01:34:38.863Z,75.70
2023-09-18T01:37:06.695Z,75.81
2023-09-18T01:39:35.252Z,75.56
2023-09-18T01:42:05.072Z,75.67
2023-09-18T01:44:32.522Z,75.19
2023-09-18T01:47:00.199Z,75.37
2023-09-18T01:49:31.115Z,75.66
2023-09-18T01:51:58.126Z,76.14
2023-09-18T01:54:24.847Z,76.18
2023-09-18T01:56:51.589Z,76.04
2023-09-18T01:59:20.954Z,76.42
2023-09-18T02:01:48.335Z,76.15
2023-09-18T02:04:46.089Z,76.48
2023-09-18T02:07:02.117Z,76.45
2023-09-18T02:09:28.785Z,76.57
2023-09-18T02:11:55.403Z,76.14
2023-09-18T02:14:23.431Z,76.52
2023-09-18T02:16:50.088Z,76.59
2023-09-18T02:19:16.675Z,76.34
2023-09-18T02:21:43.542Z,76.59
2023-09-18T02:24:10.349Z,76.63
2023-09-18T02:26:37.042Z,76.67
2023-09-18T02:29:07.439Z,76.49
2023-09-18T02:31:35.478Z,76.76
2023-09-18T02:34:02.067Z,76.91
2023-09-18T02:36:28.659Z,76.83
2023-09-18T02:38:55.376Z,76.92
2023-09-18T02:41:22.211Z,76.85
2023-09-18T02:43:48.812Z,77.04
2023-09-18T02:46:15.467Z,76.96
2023-09-18T02:48:43.506Z,76.85
2023-09-18T02:51:10.148Z,77.16
2023-09-18T02:53:36.931Z,77.00
2023-09-18T02:56:03.827Z,77.16
2023-09-18T02:58:30.467Z,77.08
2023-09-18T03:00:58.553Z,76.99
2023-09-18T03:03:25.513Z,77.01
2023-09-18T03:05:53.628Z,77.04
2023-09-18T03:08:20.331Z,77.29
2023-09-18T03:10:46.981Z,77.24
2023-09-18T03:13:15.569Z,77.32
2023-09-18T03:15:46.276Z,77.31
2023-09-18T03:18:12.936Z,77.17
2023-09-18T03:20:39.923Z,77.17
2023-09-18T03:23:08.048Z,77.07
2023-09-18T03:25:49.733Z,77.60
2023-09-18T03:28:19.242Z,77.23
2023-09-18T03:30:45.816Z,77.47
2023-09-18T03:33:12.458Z,77.47
2023-09-18T03:35:47.880Z,77.40
2023-09-18T03:38:16.406Z,77.33
2023-09-18T03:40:43.144Z,77.63
2023-09-18T03:43:10.186Z,77.75
2023-09-18T03:45:36.783Z,77.61
2023-09-18T03:48:03.873Z,77.48
2023-09-18T03:50:30.540Z,77.70
2023-09-18T03:52:57.314Z,77.50
2023-09-18T03:55:25.343Z,77.63
2023-09-18T03:57:53.541Z,77.73
2023-09-18T04:00:20.216Z,78.11
2023-09-18T04:02:46.835Z,77.91
2023-09-18T04:05:13.807Z,78.27
2023-09-18T04:07:40.453Z,78.23
2023-09-18T04:10:07.368Z,78.41
2023-09-18T04:12:35.334Z,78.37
2023-09-18T04:15:01.921Z,78.50
2023-09-18T04:17:28.644Z,78.47
2023-09-18T04:19:55.286Z,78.44
2023-09-18T04:22:21.833Z,78.70
2023-09-18T04:24:48.405Z,78.58
2023-09-18T04:27:14.961Z,78.98
2023-09-18T04:29:45.314Z,78.55
2023-09-18T04:32:11.987Z,78.73
2023-09-18T04:34:38.629Z,78.67
2023-09-18T04:37:05.291Z,78.29
2023-09-18T04:39:31.889Z,78.29
2023-09-18T04:41:58.466Z,78.57
2023-09-18T04:44:25.092Z,78.39
2023-09-18T04:46:53.045Z,78.98
2023-09-18T04:49:19.699Z,78.72
2023-09-18T04:51:46.282Z,78.82
2023-09-18T04:54:12.850Z,78.77
2023-09-18T04:56:39.493Z,78.77
2023-09-18T04:59:06.119Z,78.98
2023-09-18T05:01:32.784Z,79.12
2023-09-18T05:04:00.853Z,78.71
2023-09-18T05:06:27.615Z,78.74
2023-09-18T05:08:54.555Z,79.20
2023-09-18T05:11:21.420Z,79.06
2023-09-18T05:13:48.017Z,79.09
2023-09-18T05:16:14.626Z,79.49
2023-09-18T05:18:41.302Z,79.55
2023-09-18T05:21:10.158Z,79.64
2023-09-18T05:23:36.864Z,79.44
2023-09-18T05:26:03.654Z,79.80
2023-09-18T05:28:30.305Z,79.65
2023-09-18T05:30:56.989Z,79.71
2023-09-18T05:33:23.688Z,79.66
2023-09-18T05:35:50.296Z,79.54
2023-09-18T05:38:18.550Z,79.47
2023-09-18T05:40:45.366Z,79.90
2023-09-18T05:43:12.149Z,79.50
2023-09-18T05:45:38.911Z,79.74
2023-09-18T05:48:05.986Z,79.25
2023-09-18T05:50:33.629Z,79.49
2023-09-18T05:53:00.523Z,79.26
2023-09-18T05:55:28.713Z,79.28
2023-09-18T05:57:55.552Z,78.79
2023-09-18T06:00:22.321Z,78.75
2023-09-18T06:02:49.122Z,78.93
2023-09-18T06:05:15.841Z,78.78
2023-09-18T06:07:42.968Z,78.91
2023-09-18T06:10:10.312Z,78.97
2023-09-18T06:12:40.002Z,78.52
2023-09-18T06:15:07.502Z,78.10
2023-09-18T06:17:34.238Z,78.88
2023-09-18T06:20:00.864Z,78.91
2023-09-18T06:22:27.507Z,78.36
2023-09-18T06:24:54.072Z,78.04
2023-09-18T06:27:20.745Z,77.98
2023-09-18T06:29:48.735Z,77.94
2023-09-18T06:32:15.458Z,77.33
2023-09-18T06:34:42.048Z,77.58
2023-09-18T06:37:08.693Z,77.20
2023-09-18T06:39:35.271Z,76.92
2023-09-18T06:42:01.943Z,76.62
2023-09-18T06:44:28.559Z,76.75
2023-09-18T06:46:56.623Z,77.05
2023-09-18T06:49:23.307Z,76.62
2023-09-18T06:51:49.851Z,76.06
2023-09-18T06:54:16.410Z,75.50
2023-09-18T06:56:43.177Z,75.65
2023-09-18T06:59:09.965Z,75.45
2023-09-18T07:01:36.592Z,74.89
2023-09-18T07:04:05.320Z,73.87
2023-09-18T07:06:31.940Z,74.38
2023-09-18T07:08:58.609Z,74.20
2023-09-18T07:11:26.276Z,73.53
2023-09-18T07:13:53.156Z,73.23
2023-09-18T07:16:19.822Z,72.37
2023-09-18T07:18:46.530Z,73.15
2023-09-18T07:21:14.537Z,73.12
2023-09-18T07:23:41.497Z,73.04
2023-09-18T07:26:08.110Z,72.77
2023-09-18T07:28:34.710Z,72.86
2023-09-18T07:31:06.368Z,72.74
2023-09-18T07:33:33.103Z,71.42
2023-09-18T07:35:59.786Z,71.84
2023-09-18T07:38:27.792Z,71.61
2023-09-18T07:40:57.848Z,70.17
2023-09-18T07:43:25.900Z,71.45
2023-09-18T07:45:54.174Z,70.67
2023-09-18T07:48:21.124Z,69.61
2023-09-18T07:50:47.859Z,70.11
2023-09-18T07:53:14.511Z,69.54
2023-09-18T07:55:42.463Z,69.51
2023-09-18T07:58:09.084Z,69.42
2023-09-18T08:00:35.662Z,68.53
2023-09-18T08:03:02.442Z,68.80
2023-09-18T08:05:29.326Z,68.86
2023-09-18T08:07:56.020Z,67.84
2023-09-18T08:10:22.791Z,67.84
2023-09-18T08:12:50.769Z,68.22
2023-09-18T08:15:17.366Z,68.39
2023-09-18T08:17:44.083Z,68.17
2023-09-18T08:20:11.432Z,67.92
2023-09-18T08:22:38.024Z,67.49
2023-09-18T08:25:05.722Z,66.79
2023-09-18T08:27:32.328Z,67.73
2023-09-18T08:30:00.649Z,66.66
2023-09-18T08:32:27.381Z,67.76
2023-09-18T08:34:55.542Z,67.71
2023-09-18T08:37:22.324Z,66.07
2023-09-18T08:39:48.894Z,65.36
2023-09-18T08:42:16.965Z,65.93
2023-09-18T08:44:49.261Z,65.32
2023-09-18T08:47:18.954Z,65.81
2023-09-18T08:49:46.873Z,66.04
2023-09-18T08:52:14.912Z,65.91
2023-09-18T08:54:41.529Z,65.26
2023-09-18T08:57:08.907Z,64.09
2023-09-18T08:59:36.689Z,64.22
2023-09-18T09:02:03.371Z,63.49
2023-09-18T09:04:31.465Z,63.90
2023-09-18T09:06:58.124Z,64.56
2023-09-18T09:09:24.709Z,63.45
2023-09-18T09:11:52.183Z,62.84
2023-09-18T09:14:19.417Z,63.67
2023-09-18T09:16:49.539Z,62.96
2023-09-18T09:19:16.968Z,63.22
2023-09-18T09:21:45.624Z,62.03
2023-09-18T09:24:12.601Z,63.57
2023-09-18T09:26:40.333Z,62.52
2023-09-18T09:29:16.143Z,62.06
2023-09-18T09:31:42.749Z,62.92
2023-09-18T09:34:09.519Z,62.33
2023-09-18T09:36:36.106Z,61.83
2023-09-18T09:39:04.440Z,60.82
2023-09-18T09:41:32.511Z,60.52
2023-09-18T09:43:59.462Z,61.05
2023-09-18T09:46:26.474Z,61.39
2023-09-18T09:49:00.660Z,61.81
2023-09-18T09:51:27.244Z,61.26
2023-09-18T09:53:53.921Z,60.96
2023-09-18T09:56:21.987Z,60.80
2023-09-18T09:59:01.248Z,60.73
2023-09-18T10:01:28.416Z,60.31
2023-09-18T10:03:55.936Z,60.13
2023-09-18T10:06:23.397Z,59.47
2023-09-18T10:08:50.400Z,58.70
2023-09-18T10:11:18.289Z,58.60
2023-09-18T10:13:52.885Z,58.86
2023-09-18T10:16:21.985Z,58.92
2023-09-18T10:19:01.715Z,58.40
2023-09-18T10:21:34.515Z,58.89
2023-09-18T10:24:08.589Z,58.94
2023-09-18T10:26:42.131Z,59.35
2023-09-18T10:29:11.986Z,57.71
2023-09-18T10:31:39.823Z,56.78
2023-09-18T10:34:07.198Z,56.54
2023-09-18T10:36:35.718Z,57.73
2023-09-18T10:39:03.161Z,56.28
2023-09-18T10:41:30.134Z,56.57
2023-09-18T10:43:59.305Z,56.56
2023-09-18T10:46:28.211Z,56.81
2023-09-18T10:48:55.950Z,56.25
2023-09-18T10:51:23.500Z,55.96
2023-09-18T10:53:50.360Z,56.90
2023-09-18T10:56:17.215Z,57.17
2023-09-18T10:58:44.729Z,56.72
2023-09-18T11:01:12.884Z,57.41
2023-09-18T11:03:41.279Z,56.99
2023-09-18T11:06:11.582Z,57.72
2023-09-18T11:08:45.637Z,57.68
2023-09-18T11:11:13.383Z,56.70
2023-09-18T11:13:41.997Z,58.32
2023-09-18T11:16:21.359Z,59.06
2023-09-18T11:18:51.788Z,59.16
2023-09-18T11:21:19.033Z,58.06
2023-09-18T11:23:45.765Z,59.06
2023-09-18T11:26:12.596Z,58.55
2023-09-18T11:28:39.699Z,59.04
2023-09-18T11:31:06.787Z,59.68
2023-09-18T11:33:35.482Z,59.21
2023-09-18T11:36:09.188Z,59.80
2023-09-18T11:38:48.479Z,59.49
2023-09-18T11:41:25.352Z,60.39
2023-09-18T11:43:52.398Z,60.28
2023-09-18T11:46:20.286Z,61.34
2023-09-18T11:48:48.605Z,61.25
2023-09-18T11:51:23.020Z,61.03
2023-09-18T11:53:53.037Z,60.46
2023-09-18T11:56:19.910Z,60.70
2023-09-18T11:58:47.335Z,59.97
2023-09-18T12:01:15.623Z,60.64
2023-09-18T12:03:43.351Z,61.53
2023-09-18T12:06:10.980Z,61.75
2023-09-18T12:08:39.152Z,58.39
2023-09-18T12:11:07.137Z,57.43
2023-09-18T12:13:34.219Z,57.72
2023-09-18T12:16:02.336Z,57.57
2023-09-18T12:18:30.232Z,56.80
2023-09-18T12:20:58.084Z,55.37
2023-09-18T12:23:24.766Z,55.70
2023-09-18T12:26:00.217Z,54.73
2023-09-18T12:28:27.059Z,55.34
2023-09-18T12:30:53.624Z,55.90
2023-09-18T12:33:20.359Z,55.57
2023-09-18T12:35:47.263Z,56.02
2023-09-18T12:38:18.548Z,56.44
2023-09-18T12:40:45.377Z,56.85
2023-09-18T12:43:14.517Z,56.73
2023-09-18T12:45:41.609Z,57.72
2023-09-18T12:48:08.836Z,57.58
2023-09-18T12:50:35.727Z,57.32
2023-09-18T12:53:13.256Z,58.26
2023-09-18T12:55:40.607Z,57.72
2023-09-18T12:58:07.394Z,58.61
2023-09-18T13:00:36.180Z,58.50
2023-09-18T13:03:03.486Z,59.38
2023-09-18T13:05:30.313Z,60.01
2023-09-18T13:07:57.086Z,60.16
2023-09-18T13:10:26.388Z,60.35
2023-09-18T13:12:55.752Z,61.40
2023-09-18T13:15:26.978Z,59.91
2023-09-18T13:17:55.325Z,60.30
2023-09-18T13:20:24.299Z,61.21
2023-09-18T13:22:51.834Z,62.61
2023-09-18T13:25:21.755Z,62.54
2023-09-18T13:27:48.620Z,62.47
2023-09-18T13:30:15.276Z,63.31
2023-09-18T13:32:43.043Z,61.85
2023-09-18T13:35:11.727Z,63.47
2023-09-18T13:37:39.224Z,64.11
2023-09-18T13:40:06.832Z,64.14
2023-09-18T13:42:33.510Z,64.39
2023-09-18T13:45:00.527Z,64.90
2023-09-18T13:47:27.608Z,65.23
2023-09-18T13:49:54.261Z,65.50
2023-09-18T13:52:22.221Z,65.03
2023-09-18T13:54:49.876Z,64.97
2023-09-18T13:57:16.647Z,65.61
2023-09-18T13:59:43.268Z,65.48
2023-09-18T14:02:09.865Z,65.32
2023-09-18T14:04:36.411Z,64.75
2023-09-18T14:07:03.068Z,64.22
2023-09-18T14:09:31.082Z,65.56
2023-09-18T14:11:57.718Z,65.13
2023-09-18T14:14:24.388Z,64.68
2023-09-18T14:16:51.027Z,64.05
2023-09-18T14:19:17.700Z,64.75
2023-09-18T14:21:44.674Z,64.02
2023-09-18T14:24:11.312Z,63.96
2023-09-18T14:26:39.360Z,64.65
2023-09-18T14:29:05.942Z,64.34
2023-09-18T14:31:32.499Z,62.61
2023-09-18T14:33:59.081Z,63.91
2023-09-18T14:36:25.683Z,62.64
2023-09-18T14:38:52.339Z,62.02
2023-09-18T14:41:19.075Z,62.42
2023-09-18T14:43:47.238Z,62.25
2023-09-18T14:46:14.352Z,62.24
2023-09-18T14:48:40.975Z,61.84
2023-09-18T14:51:07.582Z,61.19
2023-09-18T14:53:34.233Z,61.69
2023-09-18T14:56:01.065Z,62.38
2023-09-18T14:58:27.782Z,62.87
2023-09-18T15:00:55.804Z,61.79
2023-09-18T15:03:22.510Z,62.54
2023-09-18T15:05:49.190Z,62.24
2023-09-18T15:08:15.779Z,62.10
2023-09-18T15:10:42.352Z,62.47
2023-09-18T15:13:08.950Z,62.85
2023-09-18T15:15:35.475Z,62.50
2023-09-18T15:18:03.868Z,62.72
2023-09-18T15:20:30.537Z,62.91
2023-09-18T15:22:57.189Z,63.37
2023-09-18T15:25:23.926Z,63.48
2023-09-18T15:27:50.726Z,63.83
2023-09-18T15:30:17.420Z,63.67
2023-09-18T15:32:49.003Z,64.05
2023-09-18T15:35:17.232Z,64.13
2023-09-18T15:37:44.422Z,64.89
2023-09-18T15:40:12.007Z,64.84
2023-09-18T15:42:38.572Z,64.86
2023-09-18T15:45:07.676Z,65.16
2023-09-18T15:47:34.359Z,64.87
2023-09-18T15:50:01.045Z,65.43
2023-09-18T15:52:28.959Z,65.64
2023-09-18T15:54:55.526Z,66.01
2023-09-18T15:57:22.143Z,66.70
2023-09-18T15:59:48.958Z,66.89
2023-09-18T16:02:15.531Z,68.00
2023-09-18T16:04:42.235Z,69.17
2023-09-18T16:07:08.860Z,69.46
2023-09-18T16:09:36.726Z,70.64
2023-09-18T16:12:03.597Z,71.66
2023-09-18T16:14:30.287Z,72.01
2023-09-18T16:16:56.906Z,72.43
2023-09-18T16:19:24.017Z,73.03
2023-09-18T16:21:50.811Z,73.83
2023-09-18T16:24:17.467Z,74.59
2023-09-18T16:26:45.453Z,74.96
2023-09-18T16:29:12.089Z,75.68
2023-09-18T16:31:38.694Z,75.59
2023-09-18T16:34:05.523Z,75.94
2023-09-18T16:36:32.075Z,76.30
2023-09-18T16:38:58.770Z,76.38
2023-09-18T16:41:25.472Z,76.63
2023-09-18T16:43:53.516Z,76.95
2023-09-18T16:46:20.259Z,77.52
2023-09-18T16:48:46.904Z,77.87
2023-09-18T16:51:13.653Z,77.72
2023-09-18T16:53:40.477Z,77.79
2023-09-18T16:56:07.750Z,78.39
2023-09-18T16:58:34.431Z,78.70
2023-09-18T17:01:02.404Z,78.49
2023-09-18T17:03:29.068Z,78.13
2023-09-18T17:05:55.889Z,78.72
2023-09-18T17:08:22.592Z,78.82
2023-09-18T17:10:49.223Z,78.95
2023-09-18T17:13:15.745Z,79.38
2023-09-18T17:15:42.339Z,79.31
2023-09-18T17:18:10.423Z,79.91
2023-09-18T17:20:37.233Z,79.93
2023-09-18T17:23:04.230Z,79.06
2023-09-18T17:25:30.826Z,79.46
2023-09-18T17:27:57.397Z,80.30
2023-09-18T17:30:23.951Z,80.04
2023-09-18T17:32:50.630Z,80.00
2023-09-18T17:35:18.664Z,79.90
2023-09-18T17:37:45.242Z,79.91
2023-09-18T17:40:11.963Z,80.07
2023-09-18T17:42:38.580Z,80.57
2023-09-18T17:45:06.739Z,80.31
2023-09-18T17:47:33.443Z,80.48
2023-09-18T17:50:00.260Z,80.22
2023-09-18T17:52:28.196Z,80.69
2023-09-18T17:54:54.806Z,79.99
2023-09-18T17:57:21.578Z,80.67
2023-09-18T17:59:48.868Z,80.20
2023-09-18T18:02:15.689Z,80.30
2023-09-18T18:04:42.517Z,80.88
2023-09-18T18:07:09.152Z,80.82
2023-09-18T18:09:37.172Z,80.89
2023-09-18T18:12:04.147Z,80.73
2023-09-18T18:14:32.049Z,80.90
2023-09-18T18:16:58.638Z,80.66
2023-09-18T18:19:25.285Z,80.73
2023-09-18T18:21:51.877Z,80.94
2023-09-18T18:24:18.517Z,80.54
2023-09-18T18:26:46.616Z,80.57
2023-09-18T18:29:13.259Z,80.70
2023-09-18T18:31:39.902Z,80.25
2023-09-18T18:34:06.534Z,80.29
2023-09-18T18:36:33.140Z,80.41
2023-09-18T18:39:00.017Z,80.58
2023-09-18T18:41:26.717Z,79.89
2023-09-18T18:43:54.716Z,80.28
2023-09-18T18:46:21.482Z,80.67
2023-09-18T18:48:48.255Z,80.06
2023-09-18T18:51:19.638Z,80.22
2023-09-18T18:53:49.766Z,80.36
2023-09-18T18:56:17.805Z,80.23
2023-09-18T18:58:45.652Z,80.28
2023-09-18T19:01:14.020Z,80.45
2023-09-18T19:03:41.193Z,80.35
2023-09-18T19:06:08.818Z,80.62
2023-09-18T19:08:36.709Z,79.62
2023-09-18T19:11:04.741Z,79.87
2023-09-18T19:13:31.537Z,80.42
2023-09-18T19:15:58.125Z,79.99
2023-09-18T19:18:26.580Z,79.80
2023-09-18T19:20:53.818Z,80.41
2023-09-18T19:23:20.871Z,79.78
2023-09-18T19:25:49.029Z,79.97
2023-09-18T19:28:15.725Z,80.13
2023-09-18T19:30:42.455Z,80.12
2023-09-18T19:33:09.143Z,80.31
2023-09-18T19:35:37.211Z,80.09
2023-09-18T19:38:04.225Z,79.71
2023-09-18T19:40:30.829Z,79.89
2023-09-18T19:42:57.397Z,79.65
2023-09-18T19:45:24.066Z,79.92
2023-09-18T19:47:50.705Z,79.79
2023-09-18T19:50:17.405Z,79.58
2023-09-18T19:52:45.381Z,80.43
2023-09-18T19:55:11.944Z,80.15
2023-09-18T19:57:38.532Z,79.89
2023-09-18T20:00:06.502Z,79.74
2023-09-18T20:02:33.335Z,80.13
2023-09-18T20:04:59.928Z,80.41
2023-09-18T20:07:26.597Z,79.85
2023-09-18T20:09:54.538Z,80.25
2023-09-18T20:12:21.237Z,80.26
2023-09-18T20:14:49.648Z,80.23
2023-09-18T20:17:16.337Z,80.27
2023-09-18T20:19:42.959Z,80.47
2023-09-18T20:22:09.537Z,80.87
2023-09-18T20:24:36.141Z,80.43
2023-09-18T20:27:04.511Z,80.59
2023-09-18T20:29:32.202Z,80.90
2023-09-18T20:31:58.828Z,80.94
2023-09-18T20:34:25.589Z,80.97
2023-09-18T20:36:52.665Z,81.20
2023-09-18T20:39:19.296Z,81.15
2023-09-18T20:41:45.914Z,80.88
2023-09-18T20:44:14.017Z,81.58
2023-09-18T20:46:40.624Z,81.41
2023-09-18T20:49:07.218Z,80.88
2023-09-18T20:51:33.975Z,81.49
2023-09-18T20:54:00.988Z,81.60
2023-09-18T20:56:27.790Z,81.50
2023-09-18T20:58:55.779Z,81.55
2023-09-18T21:01:23.781Z,81.21
2023-09-18T21:04:02.511Z,81.72
2023-09-18T21:06:29.158Z,81.58
2023-09-18T21:08:55.793Z,81.29
2023-09-18T21:11:22.432Z,81.15
2023-09-18T21:13:49.128Z,81.07
2023-09-18T21:16:16.938Z,81.58
2023-09-18T21:18:45.245Z,81.34
2023-09-18T21:21:15.606Z,81.52
2023-09-18T21:23:42.971Z,82.07
2023-09-18T21:26:09.557Z,81.66
2023-09-18T21:28:36.145Z,81.92
2023-09-18T21:31:09.341Z,82.21
2023-09-18T21:33:35.974Z,81.84
2023-09-18T21:36:12.166Z,82.19
2023-09-18T21:38:38.975Z,81.64
2023-09-18T21:41:05.648Z,81.95
2023-09-18T21:43:32.158Z,81.77
2023-09-18T21:45:58.744Z,81.70
2023-09-18T21:48:25.460Z,82.01
2023-09-18T21:50:52.191Z,81.96
2023-09-18T21:53:20.223Z,81.96
2023-09-18T21:55:46.849Z,82.23
2023-09-18T21:58:13.444Z,82.21
2023-09-18T22:00:40.072Z,82.06
2023-09-18T22:03:06.929Z,81.86
2023-09-18T22:05:33.789Z,82.39
2023-09-18T22:08:00.417Z,82.13
2023-09-18T22:10:28.349Z,81.82
2023-09-18T22:12:54.949Z,82.15
2023-09-18T22:15:21.665Z,82.37
2023-09-18T22:17:48.334Z,82.11
2023-09-18T22:20:15.152Z,82.21
2023-09-18T22:22:41.813Z,82.02
2023-09-18T22:25:09.388Z,81.98
2023-09-18T22:27:37.312Z,82.26
2023-09-18T22:30:04.576Z,82.34
2023-09-18T22:32:31.188Z,82.34
2023-09-18T22:34:57.798Z,82.56
2023-09-18T22:37:24.512Z,82.21
2023-09-18T22:39:59.633Z,82.80
2023-09-18T22:42:25.941Z,82.78
2023-09-18T22:45:29.955Z,82.67
2023-09-18T22:48:34.071Z,82.72
2023-09-18T22:51:38.442Z,82.67
2023-09-18T22:54:04.708Z,82.88
2023-09-18T22:56:32.595Z,82.60
2023-09-18T22:58:59.402Z,82.84
2023-09-18T23:01:26.514Z,82.74
2023-09-18T23:03:53.141Z,82.70
2023-09-18T23:06:19.727Z,82.47
2023-09-18T23:08:46.312Z,82.82
2023-09-18T23:11:12.897Z,83.04
2023-09-18T23:13:40.954Z,82.44
2023-09-18T23:16:07.812Z,82.75
2023-09-18T23:18:34.405Z,82.66
2023-09-18T23:21:00.978Z,82.81
2023-09-18T23:23:27.554Z,82.74
2023-09-18T23:25:57.194Z,82.70
2023-09-18T23:28:26.241Z,82.94
2023-09-18T23:30:56.572Z,83.20
2023-09-18T23:33:23.237Z,82.97
2023-09-18T23:35:49.774Z,83.02
2023-09-18T23:38:16.337Z,83.09
2023-09-18T23:40:42.990Z,82.94
2023-09-18T23:43:10.423Z,82.46
2023-09-18T23:45:39.296Z,82.62
2023-09-18T23:48:08.691Z,83.02
2023-09-18T23:50:35.296Z,83.36
2023-09-18T23:53:01.884Z,83.15
2023-09-18T23:55:28.480Z,83.16
2023-09-18T23:57:55.749Z,83.76
